Morriston, Florida
Current Conditions -  °F | °C
As of 7:50 AM on Sunday 21 Dec 2014 (Local Time) from KOCF Reporting Station
Overcast Overcast  
Wind Chill: 61°   Ceiling: 200
Heat Index: 61°   Visibility: 0.5mi
Dew Point: 57°   Wind: 0mph
Humidity: 88%   Direction: NA
Pressure: 30.1"   Gusts: NA
Location:  29.28°N, 82.44°W
Report Text: KOCF 211250Z 00000KT 1/2SM OVC002 16/14 A3010
Loading
Personal Weather Stations






























Interactive Weather Map New forecast layout! Learn more

10-Day Weather Forecast

Advertisements
Track Severe Weather on mobile